createdAt,value
2022-10-27T00:00:59.620Z,99.31
2022-10-27T00:01:59.626Z,99.41
2022-10-27T00:02:59.703Z,99.52
2022-10-27T00:03:59.590Z,99.31
2022-10-27T00:04:59.581Z,98.80
2022-10-27T00:05:59.571Z,98.80
2022-10-27T00:06:59.580Z,99.11
2022-10-27T00:07:59.574Z,98.91
2022-10-27T00:08:59.547Z,99.01
2022-10-27T00:09:59.537Z,98.80
2022-10-27T00:10:59.514Z,98.50
2022-10-27T00:11:59.505Z,98.09
2022-10-27T00:12:59.488Z,98.19
2022-10-27T00:13:59.481Z,98.09
2022-10-27T00:14:59.496Z,98.09
2022-10-27T00:15:59.466Z,98.09
2022-10-27T00:16:59.468Z,97.99
2022-10-27T00:17:59.437Z,98.19
2022-10-27T00:18:59.445Z,98.30
2022-10-27T00:19:59.484Z,98.09
2022-10-27T00:20:59.401Z,98.34
2022-10-27T00:21:59.402Z,98.24
2022-10-27T00:22:59.402Z,98.75
2022-10-27T00:23:59.376Z,99.05
2022-10-27T00:24:59.361Z,98.95
2022-10-27T00:25:59.395Z,99.26
2022-10-27T00:26:59.366Z,99.46
2022-10-27T00:27:59.347Z,99.46
2022-10-27T00:28:59.318Z,99.66
2022-10-27T00:29:59.311Z,99.87
2022-10-27T00:30:59.296Z,99.77
2022-10-27T00:31:59.284Z,99.26
2022-10-27T00:32:59.283Z,98.65
2022-10-27T00:33:59.268Z,98.44
2022-10-27T00:34:59.265Z,98.34
2022-10-27T00:35:59.272Z,98.44
2022-10-27T00:36:59.231Z,98.75
2022-10-27T00:37:59.228Z,98.85
2022-10-27T00:38:59.241Z,98.95
2022-10-27T00:39:59.206Z,98.85
2022-10-27T00:40:59.182Z,98.75
2022-10-27T00:41:59.183Z,98.54
2022-10-27T00:42:59.186Z,98.34
2022-10-27T00:43:59.173Z,98.24
2022-10-27T00:44:59.186Z,98.14
2022-10-27T00:45:59.148Z,98.14
2022-10-27T00:46:59.135Z,98.14
2022-10-27T00:47:59.119Z,98.44
2022-10-27T00:48:59.105Z,98.69
2022-10-27T00:49:59.105Z,98.59
2022-10-27T00:50:59.077Z,98.39
2022-10-27T00:51:59.080Z,98.28
2022-10-27T00:52:59.063Z,98.18
2022-10-27T00:53:59.046Z,98.18
2022-10-27T00:54:59.054Z,98.18
2022-10-27T00:55:59.036Z,97.98
2022-10-27T00:56:59.009Z,98.18
2022-10-27T00:57:59.010Z,98.28
2022-10-27T00:58:58.988Z,98.39
2022-10-27T00:59:59.004Z,98.79
2022-10-27T01:00:59.010Z,98.79
2022-10-27T01:02:58.943Z,98.28
2022-10-27T01:03:58.945Z,98.28
2022-10-27T01:04:58.921Z,98.33
2022-10-27T01:05:58.941Z,98.28
2022-10-27T01:06:58.900Z,98.33
2022-10-27T01:07:58.894Z,98.43
2022-10-27T01:08:58.877Z,98.43
2022-10-27T01:09:58.870Z,98.43
2022-10-27T05:01:13.226Z,99.22
2022-10-27T05:02:13.993Z,99.16
2022-10-27T05:03:13.966Z,99.22
2022-10-27T05:04:13.914Z,98.86
2022-10-27T05:05:13.890Z,98.65
2022-10-27T05:06:13.903Z,98.35
2022-10-27T05:07:13.900Z,97.94
2022-10-27T05:08:13.862Z,97.94
2022-10-27T05:09:13.849Z,98.14
2022-10-27T05:10:13.849Z,98.29
2022-10-27T05:11:16.337Z,98.29
2022-10-27T05:12:13.840Z,98.39
2022-10-27T05:13:13.809Z,98.39
2022-10-27T05:14:13.801Z,98.60
2022-10-27T05:15:14.663Z,98.80
2022-10-27T05:16:19.772Z,98.80
2022-10-27T05:17:18.435Z,99.01
2022-10-27T05:18:13.756Z,99.31
2022-10-27T05:19:13.747Z,98.90
2022-10-27T05:20:13.731Z,98.39
2022-10-27T05:21:13.713Z,98.39
2022-10-27T05:22:13.733Z,98.29
2022-10-27T05:23:13.717Z,97.88
2022-10-27T05:24:13.690Z,97.47
2022-10-27T05:25:13.667Z,97.57
2022-10-27T05:26:13.662Z,97.82
2022-10-27T05:27:13.655Z,98.24
2022-10-27T05:28:13.640Z,98.54
2022-10-27T05:29:13.656Z,98.03
2022-10-27T05:30:13.622Z,98.44
2022-10-27T05:31:13.607Z,98.33
2022-10-27T05:32:13.603Z,98.33
2022-10-27T05:33:13.586Z,98.54
2022-10-27T05:34:13.591Z,99.05
2022-10-27T05:35:13.573Z,98.95
2022-10-27T05:36:13.582Z,98.54
2022-10-27T05:37:13.547Z,98.13
2022-10-27T05:38:13.530Z,99.26
2022-10-27T05:39:13.520Z,99.36
2022-10-27T05:40:13.460Z,99.26
2022-10-27T05:41:13.459Z,99.15
2022-10-27T05:42:13.547Z,98.74
2022-10-27T05:43:13.427Z,98.24
2022-10-27T05:44:13.475Z,98.33
2022-10-27T05:45:13.411Z,98.33
2022-10-27T05:46:13.406Z,98.24
2022-10-27T05:47:13.380Z,98.54
2022-10-27T05:48:13.416Z,98.33
2022-10-27T05:49:13.356Z,98.24
2022-10-27T05:50:13.364Z,98.85
2022-10-27T05:51:14.756Z,99.66
2022-10-27T05:52:13.330Z,99.87
2022-10-27T05:53:13.311Z,99.87
2022-10-27T05:54:13.326Z,99.77
2022-10-27T05:55:13.291Z,99.56
2022-10-27T05:56:13.295Z,99.77
2022-10-27T05:57:13.271Z,99.05
2022-10-27T05:58:13.265Z,99.05
2022-10-27T05:59:13.266Z,99.15
2022-10-27T06:00:13.690Z,99.15
2022-10-27T06:01:13.354Z,99.66
2022-10-27T06:02:13.343Z,99.87
2022-10-27T06:03:13.213Z,99.46
2022-10-27T06:04:13.206Z,99.56
2022-10-27T06:05:13.205Z,99.98
2022-10-27T06:06:13.174Z,99.87
2022-10-27T06:07:13.205Z,99.56
2022-10-27T06:08:13.153Z,99.98
2022-10-27T06:09:13.139Z,99.87
2022-10-27T06:10:13.131Z,99.99
2022-10-27T06:11:13.138Z,99.77
2022-10-27T06:12:13.107Z,99.99
2022-10-27T06:13:13.096Z,99.46
2022-10-27T06:14:13.085Z,99.87
2022-10-27T06:15:13.104Z,99.62
2022-10-27T06:16:13.290Z,99.21
2022-10-27T06:17:13.128Z,99.31
2022-10-27T06:18:13.048Z,99.01
2022-10-27T06:19:13.032Z,99.31
2022-10-27T06:20:13.025Z,99.46
2022-10-27T06:21:13.071Z,99.52
2022-10-27T06:22:16.437Z,99.11
2022-10-27T06:23:13.015Z,99.62
2022-10-27T06:24:13.003Z,99.41
2022-10-27T06:25:12.975Z,99.62
2022-10-27T06:26:12.970Z,99.93
2022-10-27T06:27:12.947Z,99.82
2022-10-27T06:28:12.941Z,99.99
2022-10-27T06:29:12.965Z,99.82
2022-10-27T06:30:12.923Z,99.99
2022-10-27T06:31:12.902Z,99.99
2022-10-27T06:32:12.927Z,99.99
2022-10-27T06:33:12.881Z,99.99
2022-10-27T06:34:12.872Z,99.99
2022-10-27T06:35:12.868Z,99.62
2022-10-27T06:36:12.848Z,99.62
2022-10-27T06:37:12.838Z,99.99
2022-10-27T06:38:12.850Z,99.21
2022-10-27T06:39:12.809Z,98.90
2022-10-27T06:40:12.808Z,98.39
2022-10-27T06:41:15.262Z,98.08
2022-10-27T06:42:12.781Z,98.39
2022-10-27T06:43:13.141Z,97.98
2022-10-27T06:44:12.762Z,98.33
2022-10-27T06:45:12.757Z,98.03
2022-10-27T06:46:12.748Z,98.54
2022-10-27T06:47:12.746Z,98.74
2022-10-27T06:48:12.727Z,98.85
2022-10-27T06:49:15.384Z,98.95
2022-10-27T06:50:12.703Z,99.15
2022-10-27T06:51:12.679Z,99.36
2022-10-27T06:52:12.680Z,99.77
2022-10-27T06:53:12.680Z,99.98
2022-10-27T06:54:12.672Z,99.98
2022-10-27T06:55:12.654Z,99.66
2022-10-27T06:56:12.635Z,99.66
2022-10-27T06:57:12.670Z,99.56
2022-10-27T06:58:12.629Z,99.77
2022-10-27T06:59:12.601Z,99.98
2022-10-27T07:00:12.592Z,99.99
2022-10-27T07:01:12.666Z,99.99
2022-10-27T07:02:12.779Z,99.99
2022-10-27T07:03:12.559Z,99.99
2022-10-27T07:04:12.569Z,99.62
2022-10-27T07:05:12.557Z,99.41
2022-10-27T07:06:12.539Z,99.41
2022-10-27T07:07:12.535Z,99.52
2022-10-27T07:08:12.519Z,99.82
2022-10-27T07:09:12.525Z,99.93
2022-10-27T07:10:12.509Z,99.62
2022-10-27T07:11:12.482Z,99.31
2022-10-27T07:12:12.473Z,99.41
2022-10-27T07:13:12.455Z,99.31
2022-10-27T07:14:12.436Z,99.52
2022-10-27T07:15:12.449Z,99.41
2022-10-27T07:16:12.417Z,99.21
2022-10-27T07:17:12.423Z,99.72
2022-10-27T07:18:12.391Z,99.72
2022-10-27T07:19:12.376Z,99.72
2022-10-27T07:20:12.367Z,99.72
2022-10-27T07:21:12.385Z,99.99
2022-10-27T07:22:12.360Z,99.99
2022-10-27T07:23:12.343Z,99.99
2022-10-27T07:24:14.501Z,99.99
2022-10-27T07:25:12.317Z,99.99
2022-10-27T07:26:12.305Z,99.99
2022-10-27T07:27:12.313Z,99.99
2022-10-27T07:28:12.284Z,99.99
2022-10-27T07:29:12.271Z,99.99
2022-10-27T07:30:12.261Z,99.99
2022-10-27T07:31:12.257Z,99.99
2022-10-27T07:32:12.245Z,99.99
2022-10-27T07:33:12.251Z,99.99
2022-10-27T07:34:12.220Z,99.99
2022-10-27T07:35:12.208Z,99.99
2022-10-27T07:36:12.196Z,99.99
2022-10-27T07:37:12.179Z,99.99
2022-10-27T07:38:12.173Z,99.99
2022-10-27T07:39:12.187Z,99.99
2022-10-27T07:40:12.149Z,99.99
2022-10-27T07:41:12.140Z,99.93
2022-10-27T07:42:12.134Z,99.84
2022-10-27T07:43:12.122Z,99.99
2022-10-27T07:44:12.120Z,99.99
2022-10-27T07:45:12.127Z,99.99
2022-10-27T07:46:12.086Z,99.99
2022-10-27T07:47:12.080Z,99.99
2022-10-27T07:48:12.078Z,99.99
2022-10-27T07:49:12.079Z,99.99
2022-10-27T07:50:12.114Z,99.99
2022-10-27T07:51:12.051Z,99.99
2022-10-27T07:52:12.022Z,99.99
2022-10-27T07:53:12.015Z,99.99
2022-10-27T07:54:12.049Z,99.99
2022-10-27T07:55:14.475Z,99.99
2022-10-27T07:56:11.981Z,99.99
2022-10-27T07:57:11.983Z,99.99
2022-10-27T07:58:11.973Z,99.99
2022-10-27T08:00:11.957Z,99.99
2022-10-27T08:01:12.053Z,99.99
2022-10-27T08:02:12.115Z,99.99
2022-10-27T08:03:11.932Z,99.99
2022-10-27T08:04:11.891Z,99.99
2022-10-27T08:05:11.887Z,99.99
2022-10-27T08:06:11.866Z,99.99
2022-10-27T08:07:11.854Z,99.99
2022-10-27T08:08:11.862Z,99.99
2022-10-27T08:09:15.244Z,99.99
2022-10-27T08:10:11.848Z,99.99
2022-10-27T08:11:11.810Z,99.99
2022-10-27T08:12:11.803Z,99.99
2022-10-27T08:13:11.790Z,99.99
2022-10-27T08:14:11.795Z,99.99
2022-10-27T08:15:11.778Z,99.99
2022-10-27T08:16:11.759Z,99.99
2022-10-27T08:17:11.763Z,99.99
2022-10-27T08:18:11.738Z,99.99
2022-10-27T08:19:11.725Z,99.99
2022-10-27T08:20:11.726Z,99.99
2022-10-27T08:21:11.721Z,99.99
2022-10-27T08:22:13.947Z,99.99
2022-10-27T08:23:11.688Z,99.99
2022-10-27T08:24:11.696Z,99.99
2022-10-27T08:25:11.658Z,99.99
2022-10-27T08:26:11.662Z,99.99
2022-10-27T08:27:11.669Z,99.99
2022-10-27T08:28:11.634Z,99.99
2022-10-27T08:29:11.708Z,99.99
2022-10-27T08:30:11.606Z,99.99
2022-10-27T08:31:11.613Z,99.99
2022-10-27T08:32:11.587Z,99.99
2022-10-27T08:33:11.599Z,99.99
2022-10-27T08:34:11.641Z,99.99
2022-10-27T08:35:11.552Z,99.99
2022-10-27T08:36:11.540Z,99.99
2022-10-27T08:37:11.530Z,99.99
2022-10-27T08:38:11.528Z,99.99
2022-10-27T08:39:11.524Z,99.99
2022-10-27T08:40:11.498Z,99.99
2022-10-27T08:41:11.487Z,99.99
2022-10-27T08:42:11.478Z,99.99
2022-10-27T08:43:11.462Z,99.99
2022-10-27T08:44:11.453Z,99.99
2022-10-27T08:45:11.456Z,99.99
2022-10-27T08:46:11.432Z,99.99
2022-10-27T08:47:11.424Z,99.99
2022-10-27T08:48:11.421Z,99.99
2022-10-27T08:49:11.410Z,99.99
2022-10-27T08:50:11.438Z,99.99
2022-10-27T08:51:11.428Z,99.99
2022-10-27T08:52:11.371Z,99.99
2022-10-27T08:53:11.349Z,99.99
2022-10-27T08:54:11.401Z,99.99
2022-10-27T08:55:11.336Z,99.99
2022-10-27T08:56:11.321Z,99.99
2022-10-27T08:57:11.359Z,99.99
2022-10-27T08:58:11.313Z,99.99
2022-10-27T08:59:11.308Z,99.99
2022-10-27T09:00:11.274Z,99.99
2022-10-27T09:01:11.458Z,99.99
2022-10-27T09:02:11.401Z,99.99
2022-10-27T09:03:11.246Z,99.99
2022-10-27T09:04:11.234Z,99.66
2022-10-27T09:05:13.785Z,99.99
2022-10-27T09:07:21.549Z,99.01
2022-10-27T09:08:22.503Z,99.41
2022-10-27T09:09:22.498Z,99.31
2022-10-27T09:10:22.484Z,99.01
2022-10-27T09:11:22.474Z,99.11
2022-10-27T09:12:22.482Z,99.01
2022-10-27T09:13:22.453Z,99.21
2022-10-27T09:14:22.439Z,98.80
2022-10-27T09:15:22.432Z,98.55
2022-10-27T09:16:22.419Z,99.37
2022-10-27T09:17:22.410Z,98.96
2022-10-27T09:18:22.419Z,98.25
2022-10-27T09:19:22.400Z,98.66
2022-10-27T09:20:22.372Z,98.75
2022-10-27T09:21:22.360Z,98.55
2022-10-27T09:22:22.353Z,98.55
2022-10-27T09:23:22.350Z,98.25
2022-10-27T09:24:22.348Z,98.75
2022-10-27T09:25:22.327Z,98.61
2022-10-27T09:26:22.306Z,98.00
2022-10-27T09:27:22.302Z,97.08
2022-10-27T09:28:22.294Z,97.39
2022-10-27T09:29:22.291Z,98.00
2022-10-27T09:30:22.445Z,97.80
2022-10-27T09:31:22.263Z,97.19
2022-10-27T09:32:22.248Z,97.39
2022-10-27T09:33:22.255Z,97.80
2022-10-27T09:34:22.224Z,96.98
2022-10-27T09:35:22.236Z,97.69
2022-10-27T09:36:22.195Z,97.60
2022-10-27T09:37:22.212Z,97.19
2022-10-27T09:38:22.187Z,96.68
2022-10-27T09:39:22.168Z,96.58
2022-10-27T09:40:22.169Z,96.47
2022-10-27T09:41:22.146Z,96.88
2022-10-27T09:42:22.130Z,96.73
2022-10-27T09:43:22.135Z,96.73
2022-10-27T09:44:22.219Z,96.94
2022-10-27T09:45:22.105Z,96.12
2022-10-27T09:46:23.029Z,95.82
2022-10-27T09:47:22.134Z,95.62
2022-10-27T09:48:22.064Z,95.51
2022-10-27T09:49:22.056Z,95.51
2022-10-27T09:50:22.075Z,95.31
2022-10-27T09:51:22.059Z,95.62
2022-10-27T09:52:22.023Z,95.82
2022-10-27T09:53:22.029Z,96.02
2022-10-27T09:54:22.006Z,96.02
2022-10-27T09:55:22.002Z,95.47
2022-10-27T09:56:22.009Z,96.18
2022-10-27T09:57:21.974Z,96.18
2022-10-27T09:58:21.957Z,95.67
2022-10-27T09:59:21.951Z,95.78
2022-10-27T10:00:21.938Z,95.26
2022-10-27T10:01:21.986Z,95.47
2022-10-27T10:02:21.986Z,95.06
2022-10-27T10:03:21.910Z,94.86
2022-10-27T10:04:21.901Z,95.37
2022-10-27T10:05:21.912Z,95.37
2022-10-27T10:06:21.869Z,95.78
2022-10-27T10:07:21.862Z,95.42
2022-10-27T10:08:21.863Z,94.51
2022-10-27T10:09:21.847Z,94.31
2022-10-27T10:10:25.606Z,94.21
2022-10-27T10:11:21.825Z,95.12
2022-10-27T10:12:23.537Z,94.41
2022-10-27T10:13:21.802Z,94.61
2022-10-27T10:14:21.801Z,94.92
2022-10-27T10:15:21.779Z,95.22
2022-10-27T10:16:21.768Z,95.02
2022-10-27T10:17:21.751Z,95.02
2022-10-27T10:18:21.743Z,94.71
2022-10-27T10:19:21.959Z,95.22
2022-10-27T10:20:21.746Z,94.87
2022-10-27T10:21:21.717Z,94.26
2022-10-27T10:22:21.698Z,94.17
2022-10-27T10:23:21.686Z,94.98
2022-10-27T10:24:21.668Z,94.37
2022-10-27T10:25:21.667Z,94.77
2022-10-27T10:26:21.664Z,94.67
2022-10-27T10:27:21.648Z,93.96
2022-10-27T10:28:21.663Z,95.07
2022-10-27T10:29:21.622Z,94.67
2022-10-27T10:30:21.604Z,93.86
2022-10-27T10:31:21.661Z,94.67
2022-10-27T10:32:21.586Z,94.42
2022-10-27T10:33:21.593Z,93.86
2022-10-27T10:34:21.576Z,94.02
2022-10-27T10:35:21.559Z,94.42
2022-10-27T10:36:21.555Z,93.91
2022-10-27T10:38:21.542Z,94.12
2022-10-27T10:39:21.537Z,94.62
2022-10-27T10:40:21.516Z,94.12
2022-10-27T10:41:21.498Z,93.61
2022-10-27T10:42:21.501Z,93.00
2022-10-27T10:43:21.479Z,93.41
2022-10-27T10:44:21.460Z,93.26
2022-10-27T10:45:21.487Z,92.96
2022-10-27T10:46:21.431Z,92.96
2022-10-27T10:47:21.432Z,92.65
2022-10-27T10:48:21.412Z,92.76
2022-10-27T10:49:21.400Z,93.57
2022-10-27T10:50:21.402Z,93.57
2022-10-27T10:51:21.456Z,93.87
2022-10-27T10:52:21.366Z,92.76
2022-10-27T10:53:21.358Z,92.96
2022-10-27T10:54:21.346Z,92.71
2022-10-27T10:55:21.340Z,92.41
2022-10-27T10:56:21.349Z,93.22
2022-10-27T10:57:21.328Z,92.71
2022-10-27T10:58:21.302Z,93.12
2022-10-27T10:59:21.304Z,93.32
2022-10-27T11:00:21.288Z,93.02
2022-10-27T11:01:21.491Z,93.73
2022-10-27T11:02:21.274Z,92.71
2022-10-27T11:03:21.266Z,93.73
2022-10-27T11:04:21.245Z,93.62
2022-10-27T11:05:21.414Z,92.47
2022-10-27T11:06:21.215Z,92.26
2022-10-27T11:07:21.233Z,92.77
2022-10-27T11:08:21.209Z,92.36
2022-10-27T11:09:21.191Z,91.96
2022-10-27T11:10:21.172Z,93.18
2022-10-27T11:11:21.169Z,92.87
2022-10-27T11:12:21.159Z,92.87
2022-10-27T11:13:21.291Z,91.96
2022-10-27T11:14:21.154Z,92.36
2022-10-27T11:15:21.132Z,92.63
2022-10-27T11:16:27.121Z,92.02
2022-10-27T11:17:21.840Z,92.42
2022-10-27T11:18:21.088Z,91.20
2022-10-27T11:19:21.081Z,91.92
2022-10-27T11:20:21.087Z,90.80
2022-10-27T11:21:21.056Z,91.41
2022-10-27T11:22:21.077Z,91.00
2022-10-27T11:23:21.082Z,90.91
2022-10-27T11:24:21.043Z,90.40
2022-10-27T11:25:21.022Z,91.82
2022-10-27T11:26:21.000Z,90.70
2022-10-27T11:27:21.035Z,90.76
2022-10-27T11:28:20.981Z,90.66
2022-10-27T11:29:20.966Z,90.66
2022-10-27T11:30:21.002Z,90.36
2022-10-27T11:31:20.954Z,90.45
2022-10-27T11:32:20.936Z,91.02
2022-10-27T11:33:20.922Z,89.40
2022-10-27T11:34:20.941Z,90.11
2022-10-27T11:35:21.021Z,90.82
2022-10-27T11:36:20.924Z,90.41
2022-10-27T11:37:20.897Z,88.55
2022-10-27T11:38:20.914Z,88.65
2022-10-27T11:39:22.996Z,89.16
2022-10-27T11:40:22.648Z,88.85
2022-10-27T11:41:20.924Z,88.25
2022-10-27T11:42:20.826Z,88.04
2022-10-27T11:43:20.813Z,88.55
2022-10-27T11:44:20.806Z,89.42
2022-10-27T11:45:20.820Z,88.31
2022-10-27T11:46:20.792Z,87.50
2022-10-27T11:47:23.678Z,87.90
2022-10-27T11:48:20.794Z,88.51
2022-10-27T11:49:20.749Z,87.40
2022-10-27T11:50:20.745Z,86.85
2022-10-27T11:51:21.436Z,87.56
2022-10-27T11:52:20.765Z,86.35
2022-10-27T11:53:20.726Z,87.76
2022-10-27T11:54:20.700Z,88.37
2022-10-27T11:55:20.682Z,87.66
2022-10-27T11:56:20.668Z,87.26
2022-10-27T11:57:28.282Z,88.17
2022-10-27T11:58:20.717Z,87.05
2022-10-27T11:59:20.648Z,86.61
2022-10-27T12:00:20.638Z,86.51
2022-10-27T12:01:20.683Z,87.62
2022-10-27T12:02:20.658Z,86.10
2022-10-27T12:03:20.703Z,87.32
2022-10-27T12:04:20.594Z,86.36
2022-10-27T12:05:20.597Z,86.27
2022-10-27T12:06:20.559Z,86.07
2022-10-27T12:07:20.549Z,84.91
2022-10-27T12:08:20.649Z,84.31
2022-10-27T12:09:20.542Z,84.81
2022-10-27T12:10:20.521Z,85.17
2022-10-27T12:11:20.513Z,84.57
2022-10-27T12:12:20.521Z,85.08
2022-10-27T12:13:20.491Z,84.07
2022-10-27T12:14:20.499Z,85.78
2022-10-27T12:15:20.465Z,85.03
2022-10-27T12:16:20.461Z,84.83
2022-10-27T12:17:20.445Z,85.00
2022-10-27T12:18:20.437Z,83.48
2022-10-27T12:19:20.421Z,83.65
2022-10-27T12:20:20.434Z,82.14
2022-10-27T12:21:20.424Z,83.25
2022-10-27T12:22:20.401Z,81.63
2022-10-27T12:23:20.390Z,82.60
2022-10-27T12:24:20.376Z,81.99
2022-10-27T12:25:20.365Z,82.30
2022-10-27T12:26:20.372Z,81.29
2022-10-27T12:27:20.333Z,82.60
2022-10-27T12:28:20.328Z,81.39
2022-10-27T12:29:20.310Z,80.65
2022-10-27T12:30:20.310Z,80.95
2022-10-27T12:31:20.309Z,80.95
2022-10-27T12:32:20.280Z,81.76
2022-10-27T12:33:20.292Z,79.61
2022-10-27T12:34:20.263Z,80.31
2022-10-27T12:35:20.247Z,80.81
2022-10-27T12:36:20.272Z,79.00
2022-10-27T12:37:22.517Z,79.37
2022-10-27T12:38:20.241Z,80.27
2022-10-27T12:39:20.203Z,79.57
2022-10-27T12:40:20.193Z,79.27
2022-10-27T12:41:20.182Z,80.98
2022-10-27T12:42:20.187Z,80.27
2022-10-27T12:43:20.752Z,80.57
2022-10-27T12:44:20.182Z,77.86
2022-10-27T12:45:20.141Z,78.06
2022-10-27T12:46:20.147Z,77.76
2022-10-27T12:47:20.145Z,78.46
2022-10-27T12:48:20.162Z,77.46
2022-10-27T12:49:20.094Z,77.86
2022-10-27T12:50:20.116Z,77.66
2022-10-27T12:51:20.081Z,77.52
2022-10-27T12:52:20.072Z,76.92
2022-10-27T12:53:20.083Z,77.72
2022-10-27T12:54:20.084Z,76.92
2022-10-27T12:55:20.064Z,78.42
2022-10-27T12:56:22.473Z,77.83
2022-10-27T12:57:20.011Z,75.51
2022-10-27T12:58:20.009Z,78.03
2022-10-27T12:59:19.986Z,75.92
2022-10-27T13:00:20.074Z,77.22
2022-10-27T13:01:20.109Z,75.82
2022-10-27T13:02:20.055Z,77.72
2022-10-27T13:03:19.938Z,76.12
2022-10-27T13:04:19.966Z,75.31
2022-10-27T13:05:19.946Z,77.48
2022-10-27T13:06:19.916Z,76.68
2022-10-27T13:07:19.900Z,75.58
2022-10-27T13:08:19.891Z,75.48
2022-10-27T13:09:19.896Z,75.88
2022-10-27T13:10:19.873Z,75.14
2022-10-27T13:11:19.882Z,74.74
2022-10-27T13:12:19.869Z,76.65
2022-10-27T13:13:19.829Z,76.15
2022-10-27T13:14:19.824Z,73.24
2022-10-27T13:15:19.809Z,72.94
2022-10-27T13:16:19.812Z,72.80
2022-10-27T13:17:19.803Z,72.80
2022-10-27T13:18:19.800Z,74.51
2022-10-27T13:19:19.770Z,73.80
2022-10-27T13:20:19.777Z,74.51
2022-10-27T13:21:19.746Z,72.20
2022-10-27T13:22:19.745Z,72.90
2022-10-27T13:23:19.732Z,73.16
2022-10-27T13:24:19.726Z,72.66
2022-10-27T13:25:19.749Z,73.16
2022-10-27T13:26:19.756Z,71.96
2022-10-27T13:27:19.682Z,72.16
2022-10-27T13:28:19.683Z,73.07
2022-10-27T13:29:19.689Z,71.77
2022-10-27T13:30:19.675Z,72.16
2022-10-27T13:31:19.640Z,72.66
2022-10-27T13:32:19.652Z,72.27
2022-10-27T13:33:19.616Z,71.36
2022-10-27T13:34:19.605Z,71.53
2022-10-27T13:35:19.606Z,71.93
2022-10-27T13:36:19.599Z,72.03
2022-10-27T13:37:19.574Z,71.03
2022-10-27T13:38:19.568Z,71.83
2022-10-27T13:39:19.551Z,70.53
2022-10-27T13:40:19.538Z,70.73
2022-10-27T13:41:19.539Z,71.53
2022-10-27T13:43:19.516Z,69.12
2022-10-27T13:44:19.513Z,69.73
2022-10-27T13:45:19.511Z,70.50
2022-10-27T13:46:19.475Z,69.19
2022-10-27T13:47:19.495Z,70.09
2022-10-27T13:48:19.452Z,68.79
2022-10-27T13:49:19.446Z,71.39
2022-10-27T13:50:19.459Z,68.09
2022-10-27T13:51:25.418Z,69.59
2022-10-27T13:52:19.411Z,69.19
2022-10-27T13:53:19.433Z,68.86
2022-10-27T13:54:19.389Z,67.86
2022-10-27T13:55:19.389Z,67.66
2022-10-27T13:56:19.386Z,68.55
2022-10-27T13:57:19.357Z,69.86
2022-10-27T13:58:19.433Z,70.06
2022-10-27T13:59:20.344Z,67.76
2022-10-27T14:00:19.354Z,68.46
2022-10-27T14:01:19.607Z,68.16
2022-10-27T14:02:19.488Z,68.05
2022-10-27T14:03:19.291Z,68.26
2022-10-27T14:04:19.280Z,66.25
2022-10-27T14:05:19.290Z,67.55
2022-10-27T14:06:19.264Z,67.46
2022-10-27T14:07:19.244Z,67.76
2022-10-27T14:08:19.251Z,67.66
2022-10-27T14:09:19.232Z,68.66
2022-10-27T14:10:19.238Z,67.25
2022-10-27T14:11:19.213Z,67.96
2022-10-27T14:12:20.111Z,67.36
2022-10-27T14:13:19.258Z,68.55
2022-10-27T14:14:19.168Z,66.63
2022-10-27T14:15:19.161Z,67.82
2022-10-27T14:16:19.174Z,66.82
2022-10-27T14:17:19.150Z,66.52
2022-10-27T14:18:19.125Z,66.82
2022-10-27T14:19:19.125Z,65.72
2022-10-27T14:20:19.109Z,67.13
2022-10-27T14:21:19.093Z,67.63
2022-10-27T14:22:19.101Z,68.62
2022-10-27T14:23:19.066Z,66.63
2022-10-27T14:24:19.084Z,67.32
2022-10-27T14:25:19.053Z,65.83
2022-10-27T14:26:19.063Z,66.93
2022-10-27T14:27:19.131Z,66.52
2022-10-27T14:28:19.034Z,69.23
2022-10-27T14:29:19.017Z,67.93
2022-10-27T14:30:18.994Z,68.23
2022-10-27T14:31:19.006Z,66.82
2022-10-27T14:32:18.983Z,67.02
2022-10-27T14:33:18.968Z,68.02
2022-10-27T14:34:18.961Z,69.12
2022-10-27T14:35:18.944Z,67.32
2022-10-27T14:36:18.931Z,71.53
2022-10-27T14:37:18.947Z,70.12
2022-10-27T14:38:18.997Z,71.73
2022-10-27T14:39:18.896Z,70.23
2022-10-27T14:40:18.896Z,68.13
2022-10-27T14:41:18.894Z,69.02
2022-10-27T14:42:18.897Z,69.02
2022-10-27T14:43:18.871Z,71.62
2022-10-27T14:44:18.845Z,74.13
2022-10-27T14:45:18.904Z,71.23
2022-10-27T14:46:18.822Z,69.12
2022-10-27T14:47:18.848Z,69.82
2022-10-27T14:48:18.848Z,72.92
2022-10-27T14:49:18.793Z,69.06
2022-10-27T14:50:18.781Z,67.16
2022-10-27T14:51:18.793Z,70.56
2022-10-27T14:52:18.806Z,69.76
2022-10-27T14:53:18.748Z,70.96
2022-10-27T14:54:18.770Z,71.36
2022-10-27T14:55:18.930Z,70.86
2022-10-27T14:56:18.758Z,72.36
2022-10-27T14:57:18.717Z,73.16
2022-10-27T14:58:18.705Z,74.46
2022-10-27T14:59:18.680Z,73.36
2022-10-27T15:00:18.684Z,74.56
2022-10-27T15:01:25.726Z,72.96
2022-10-27T15:02:18.755Z,70.86
2022-10-27T15:03:18.637Z,75.46
2022-10-27T15:04:18.650Z,76.37
2022-10-27T15:05:18.619Z,76.97
2022-10-27T15:06:18.613Z,71.50
2022-10-27T15:07:18.594Z,71.89
2022-10-27T15:08:18.596Z,71.30
2022-10-27T15:09:18.572Z,73.19
2022-10-27T15:10:18.740Z,73.90
2022-10-27T15:11:18.558Z,71.89
2022-10-27T15:12:18.564Z,73.30
2022-10-27T15:13:18.536Z,70.19
2022-10-27T15:14:18.558Z,72.50
2022-10-27T15:15:18.526Z,73.19
2022-10-27T15:16:18.554Z,76.30
2022-10-27T15:17:18.564Z,77.91
2022-10-27T15:19:18.494Z,76.90
2022-10-27T15:20:18.466Z,75.74
2022-10-27T15:21:18.470Z,76.74
2022-10-27T15:22:18.433Z,72.63
2022-10-27T15:23:18.416Z,78.14
2022-10-27T15:24:18.428Z,76.04
2022-10-27T15:25:18.401Z,77.14
2022-10-27T15:26:18.402Z,74.47
2022-10-27T15:27:18.399Z,74.67
2022-10-27T15:28:18.361Z,73.57
2022-10-27T15:29:18.349Z,78.18
2022-10-27T15:30:18.342Z,78.08
2022-10-27T15:31:18.325Z,73.57
2022-10-27T15:32:18.332Z,75.47
2022-10-27T15:33:18.330Z,75.27
2022-10-27T15:34:18.369Z,75.10
2022-10-27T15:35:18.291Z,74.60
2022-10-27T15:36:18.292Z,71.30
2022-10-27T15:37:18.283Z,76.61
2022-10-27T15:38:18.265Z,76.31
2022-10-27T15:39:18.262Z,74.90
2022-10-27T15:40:18.371Z,76.81
2022-10-27T15:41:21.218Z,76.31
2022-10-27T15:42:18.249Z,75.45
2022-10-27T15:43:19.129Z,79.05
2022-10-27T15:44:18.193Z,77.45
2022-10-27T15:45:18.172Z,75.95
2022-10-27T15:46:18.193Z,79.55
2022-10-27T15:47:18.167Z,78.66
2022-10-27T15:48:18.179Z,79.66
2022-10-27T15:49:18.128Z,81.56
2022-10-27T15:50:18.200Z,77.79
2022-10-27T15:51:18.119Z,79.69
2022-10-27T15:52:18.107Z,79.09
2022-10-27T15:53:18.110Z,79.19
2022-10-27T15:55:18.073Z,78.39
2022-10-27T15:56:18.081Z,79.69
2022-10-27T15:57:18.073Z,78.53
2022-10-27T15:58:18.041Z,80.74
2022-10-27T15:59:18.033Z,76.12
2022-10-27T16:00:18.057Z,77.92
2022-10-27T16:01:18.100Z,78.42
2022-10-27T16:02:18.000Z,75.65
2022-10-27T16:03:17.987Z,76.35
2022-10-27T16:04:17.976Z,80.07
2022-10-27T16:05:17.985Z,79.47
2022-10-27T16:06:17.970Z,79.67
2022-10-27T16:07:17.960Z,82.08
2022-10-27T16:08:17.944Z,81.07
2022-10-27T16:09:17.951Z,80.77
2022-10-27T16:10:17.921Z,82.38
2022-10-27T16:11:17.942Z,82.58
2022-10-27T16:12:17.905Z,83.33
2022-10-27T16:13:17.893Z,82.52
2022-10-27T16:14:17.857Z,79.71
2022-10-27T16:15:18.055Z,80.71
2022-10-27T16:16:17.851Z,83.33
2022-10-27T16:17:17.847Z,84.63
2022-10-27T16:18:17.842Z,83.73
2022-10-27T16:19:17.809Z,83.87
2022-10-27T16:20:17.797Z,83.57
2022-10-27T16:21:17.785Z,84.97
2022-10-27T16:22:17.784Z,84.57
2022-10-27T16:23:17.774Z,84.77
2022-10-27T16:24:17.810Z,83.87
2022-10-27T16:25:17.754Z,85.28
2022-10-27T16:26:17.727Z,84.47
2022-10-27T16:27:17.758Z,84.81
2022-10-27T16:28:17.735Z,85.22
2022-10-27T16:29:17.704Z,85.92
2022-10-27T16:30:17.708Z,87.33
2022-10-27T16:31:17.685Z,87.23
2022-10-27T16:32:17.662Z,87.33
2022-10-27T16:33:17.661Z,87.73
2022-10-27T16:34:18.126Z,86.93
2022-10-27T16:35:18.566Z,85.42
2022-10-27T16:36:17.674Z,85.05
2022-10-27T16:37:17.683Z,85.05
2022-10-27T16:38:17.657Z,85.25
2022-10-27T16:39:17.654Z,86.97
2022-10-27T16:40:17.982Z,87.57
2022-10-27T16:41:17.641Z,86.77
2022-10-27T16:42:17.612Z,87.37
2022-10-27T16:43:17.610Z,87.07
2022-10-27T16:44:17.598Z,87.62
2022-10-27T16:45:17.582Z,87.01
2022-10-27T16:46:17.583Z,87.71
2022-10-27T16:47:17.581Z,87.21
2022-10-27T16:48:17.552Z,87.11
2022-10-27T16:49:17.559Z,86.91
2022-10-27T16:50:17.524Z,88.42